Time;durP1;ratioP1;P1;durP2;ratioP2;P2;SDS_P1;SDS_P2;PMS_P1;PMS_P2;Temp;Humidity;BMP_temperature;BMP_pressure;BME280_temperature;BME280_humidity;BME280_pressure;Samples;Min_cycle;Max_cycle;Signal;HPM_P1;HPM_P2
2021/10/06 00:00:57;;;;;;;6.70;4.50;;;;;;;16.09;53.88;96664.90;115612;1198;27006;-81
2021/10/06 00:03:28;;;;;;;7.40;4.60;;;;;;;16.02;53.93;96664.38;115621;1199;32243;-81
2021/10/06 00:06:00;;;;;;;7.10;4.10;;;;;;;15.96;54.19;96670.90;115473;1184;72661;-80
2021/10/06 00:08:31;;;;;;;7.80;4.60;;;;;;;15.85;54.45;96671.15;115249;1200;65186;-81
2021/10/06 00:11:01;;;;;;;6.60;4.20;;;;;;;15.77;54.56;96668.61;115455;1199;30469;-82
2021/10/06 00:13:33;;;;;;;7.20;4.70;;;;;;;15.75;54.67;96663.94;115583;1199;28345;-81
2021/10/06 00:16:04;;;;;;;6.10;4.60;;;;;;;15.73;54.76;96663.79;115419;1199;59990;-81
2021/10/06 00:18:36;;;;;;;7.60;4.50;;;;;;;15.70;55.26;96665.85;115501;1199;41301;-83
2021/10/06 00:21:05;;;;;;;;;;;;;;;15.63;55.47;96665.11;115599;1192;26800;-81
2021/10/06 00:23:37;;;;;;;9.20;4.30;;;;;;;15.56;55.83;96667.71;115543;1199;82632;-82
2021/10/06 00:26:09;;;;;;;8.20;4.60;;;;;;;15.50;55.92;96669.15;115568;1198;33553;-82
2021/10/06 00:28:39;;;;;;;6.90;4.70;;;;;;;15.47;56.06;96667.20;115525;1199;32588;-82
2021/10/06 00:31:08;;;;;;;;;;;;;;;15.43;56.09;96673.00;115580;1199;37355;-83
2021/10/06 00:33:39;;;;;;;6.70;4.00;;;;;;;15.37;56.39;96672.69;115627;1199;31289;-81
2021/10/06 00:36:10;;;;;;;7.00;4.40;;;;;;;15.25;56.69;96674.77;115556;1198;26725;-81
2021/10/06 00:38:41;;;;;;;7.20;4.70;;;;;;;15.19;57.09;96673.00;115547;1199;48925;-81
2021/10/06 00:41:11;;;;;;;7.40;4.20;;;;;;;15.11;57.22;96675.60;115594;1192;31587;-82
2021/10/06 00:43:40;;;;;;;;;;;;;;;15.04;57.32;96680.41;115650;1199;27096;-82
2021/10/06 00:46:11;;;;;;;8.30;4.50;;;;;;;14.94;57.67;96682.81;115621;1199;23657;-81
2021/10/06 00:48:42;;;;;;;7.00;4.50;;;;;;;14.90;57.90;96682.52;115595;1199;26040;-81
2021/10/06 00:51:14;;;;;;;7.30;4.30;;;;;;;14.89;58.13;96679.66;115553;1199;28397;-81
2021/10/06 00:53:45;;;;;;;6.00;4.40;;;;;;;14.87;58.14;96677.67;115468;1199;28375;-83
2021/10/06 00:56:16;;;;;;;6.30;4.80;;;;;;;14.83;58.26;96674.73;115473;1198;34384;-82
2021/10/06 00:58:47;;;;;;;6.50;4.90;;;;;;;14.75;58.44;96672.25;115254;1194;56985;-82
2021/10/06 01:01:18;;;;;;;7.70;4.80;;;;;;;14.63;58.76;96676.15;115507;1199;34366;-81
2021/10/06 01:03:48;;;;;;;9.40;5.00;;;;;;;14.52;59.23;96673.10;115465;1199;30330;-81
2021/10/06 01:06:19;;;;;;;8.90;5.30;;;;;;;14.37;59.78;96670.09;115390;1193;32794;-82
2021/10/06 01:08:50;;;;;;;10.60;5.20;;;;;;;14.31;59.83;96670.66;115518;1193;30454;-81
2021/10/06 01:11:21;;;;;;;9.60;5.20;;;;;;;14.32;60.19;96666.27;115500;1199;33013;-81
2021/10/06 01:13:52;;;;;;;8.50;5.30;;;;;;;14.23;60.43;96670.02;115531;1199;29398;-81
2021/10/06 01:16:25;;;;;;;6.90;4.90;;;;;;;14.17;60.72;96671.01;115576;1199;32261;-82
2021/10/06 01:18:56;;;;;;;8.50;5.60;;;;;;;14.12;61.08;96670.27;115658;1199;25365;-81
2021/10/06 01:21:27;;;;;;;6.70;5.00;;;;;;;14.10;61.17;96658.96;115668;1199;31812;-81
2021/10/06 01:23:57;;;;;;;7.70;4.90;;;;;;;14.14;60.94;96655.45;115589;1198;29762;-81
2021/10/06 01:26:26;;;;;;;;;;;;;;;14.20;61.26;96657.77;115626;1198;33542;-82
2021/10/06 01:28:57;;;;;;;8.60;5.10;;;;;;;14.23;61.56;96659.80;115649;1199;29709;-82
2021/10/06 01:31:29;;;;;;;8.40;5.00;;;;;;;14.25;61.35;96660.98;115639;1199;24835;-80
2021/10/06 01:34:00;;;;;;;8.50;5.40;;;;;;;14.25;61.39;96657.51;115226;1200;54725;-80
2021/10/06 01:36:31;;;;;;;8.70;5.00;;;;;;;14.30;61.38;96656.73;115384;1199;54349;-81
2021/10/06 01:39:02;;;;;;;8.50;5.60;;;;;;;14.32;61.43;96658.59;115484;1192;29213;-81
2021/10/06 01:41:33;;;;;;;8.70;5.10;;;;;;;14.36;61.45;96655.95;115549;1196;29163;-80
2021/10/06 01:44:05;;;;;;;7.80;4.70;;;;;;;14.43;61.26;96660.11;115464;1199;29203;-81
2021/10/06 01:46:36;;;;;;;8.50;5.00;;;;;;;14.49;61.15;96660.20;115495;1199;28236;-81
2021/10/06 01:49:06;;;;;;;7.70;5.40;;;;;;;14.52;61.26;96662.16;115397;1199;28424;-81
2021/10/06 01:51:37;;;;;;;6.50;4.90;;;;;;;14.54;61.39;96661.20;115571;1199;27601;-80
2021/10/06 01:54:09;;;;;;;7.60;4.80;;;;;;;14.52;61.58;96660.02;115574;1199;25612;-82
2021/10/06 01:56:40;;;;;;;7.30;4.70;;;;;;;14.54;61.64;96658.50;115571;1198;33232;-81
2021/10/06 01:59:10;;;;;;;8.60;5.10;;;;;;;14.51;61.61;96656.55;115552;1193;29174;-83
2021/10/06 02:01:42;;;;;;;10.70;5.00;;;;;;;14.50;61.56;96655.28;115591;1196;29855;-82
2021/10/06 02:04:12;;;;;;;8.20;4.90;;;;;;;14.48;61.15;96649.67;115541;1198;28858;-79
2021/10/06 02:06:44;;;;;;;6.90;5.10;;;;;;;14.40;61.22;96648.02;115333;1194;56855;-81
2021/10/06 02:09:15;;;;;;;6.50;4.60;;;;;;;14.35;61.06;96647.16;115358;1198;70091;-80
2021/10/06 02:11:46;;;;;;;10.60;5.10;;;;;;;14.36;60.70;96649.86;115464;1199;62922;-82
2021/10/06 02:14:16;;;;;;;8.70;4.80;;;;;;;14.44;60.59;96648.42;115561;1199;54189;-81
2021/10/06 02:16:45;;;;;;;;;;;;;;;14.41;60.73;96644.96;115536;1199;48740;-80
2021/10/06 02:19:16;;;;;;;9.10;4.20;;;;;;;14.36;60.83;96638.02;115174;1200;65499;-80
2021/10/06 02:21:47;;;;;;;6.60;4.80;;;;;;;14.38;61.27;96635.86;115290;1200;56118;-81
2021/10/06 02:24:18;;;;;;;7.30;4.90;;;;;;;14.38;61.35;96632.55;115482;1198;74986;-80
2021/10/06 02:26:50;;;;;;;8.80;5.00;;;;;;;14.36;61.09;96633.33;115500;1199;64512;-82
2021/10/06 02:29:21;;;;;;;7.50;4.50;;;;;;;14.36;61.45;96633.01;115555;1199;57491;-80
2021/10/06 02:31:51;;;;;;;7.60;4.70;;;;;;;14.34;61.52;96634.80;115442;1199;68679;-81
2021/10/06 02:34:22;;;;;;;7.00;4.30;;;;;;;14.30;61.36;96635.17;115574;1199;57656;-81
2021/10/06 02:36:53;;;;;;;8.70;4.90;;;;;;;14.34;60.72;96633.86;115558;1193;56303;-80
2021/10/06 02:39:24;;;;;;;8.10;4.40;;;;;;;14.42;60.43;96631.38;115514;1199;58820;-81
2021/10/06 02:41:55;;;;;;;7.80;4.50;;;;;;;14.49;59.99;96635.08;115391;1200;60321;-80
2021/10/06 02:44:26;;;;;;;6.10;4.50;;;;;;;14.58;59.60;96637.13;115498;1193;59008;-80
2021/10/06 02:46:57;;;;;;;6.00;4.20;;;;;;;14.68;59.07;96628.51;115569;1197;48525;-80
2021/10/06 02:49:28;;;;;;;9.50;4.80;;;;;;;14.79;58.59;96624.77;115625;1199;55572;-81
2021/10/06 02:51:59;;;;;;;9.00;5.00;;;;;;;14.89;58.29;96618.80;115698;1199;53332;-81
2021/10/06 02:54:30;;;;;;;7.50;4.20;;;;;;;14.94;58.18;96620.34;115421;1199;78918;-80
2021/10/06 02:57:04;;;;;;;9.00;4.50;;;;;;;14.97;58.30;96619.45;115551;1191;61109;-80
2021/10/06 02:59:35;;;;;;;6.60;4.60;;;;;;;14.85;59.01;96622.11;113898;1199;1985023;-81
2021/10/06 03:02:06;;;;;;;6.50;5.10;;;;;;;14.66;59.43;96620.91;115543;1199;55215;-81
2021/10/06 03:04:37;;;;;;;6.50;4.40;;;;;;;14.50;59.88;96623.69;115592;1199;53750;-81
2021/10/06 03:07:07;;;;;;;7.10;5.00;;;;;;;14.33;60.50;96623.77;115536;1199;70450;-82
2021/10/06 03:09:38;;;;;;;9.50;5.10;;;;;;;14.22;60.90;96626.48;114044;1198;1858918;-81
2021/10/06 03:12:11;;;;;;;11.20;5.30;;;;;;;14.22;61.54;96626.59;115554;1198;57895;-80
2021/10/06 03:14:42;;;;;;;7.30;5.10;;;;;;;14.25;61.48;96628.23;115490;1198;62111;-82
2021/10/06 03:17:12;;;;;;;9.90;4.80;;;;;;;14.28;61.46;96628.54;115467;1192;73771;-80
2021/10/06 03:19:43;;;;;;;7.70;4.60;;;;;;;14.29;61.34;96629.70;115510;1199;60868;-80
2021/10/06 03:22:14;;;;;;;9.20;5.30;;;;;;;14.31;61.22;96631.13;115510;1199;58630;-80
2021/10/06 03:24:45;;;;;;;8.90;5.00;;;;;;;14.34;61.72;96638.42;115397;1199;56302;-82
2021/10/06 03:27:16;;;;;;;7.20;4.80;;;;;;;14.33;62.33;96636.57;115335;1199;64323;-83
2021/10/06 03:29:47;;;;;;;10.00;4.70;;;;;;;14.38;62.72;96637.76;115570;1198;29616;-80
2021/10/06 03:32:17;;;;;;;7.30;4.70;;;;;;;14.41;62.95;96633.33;115486;1192;24734;-81
2021/10/06 03:34:48;;;;;;;8.30;4.90;;;;;;;14.45;63.03;96633.24;115508;1198;31139;-81
2021/10/06 03:37:17;;;;;;;;;;;;;;;14.46;63.22;96628.36;115647;1199;25020;-82
2021/10/06 03:39:48;;;;;;;7.20;4.30;;;;;;;14.43;63.44;96639.47;115416;1192;51827;-82
2021/10/06 03:42:19;;;;;;;8.60;5.10;;;;;;;14.38;63.48;96643.21;115487;1198;71264;-81
2021/10/06 03:44:50;;;;;;;9.90;5.00;;;;;;;14.27;63.37;96645.73;115557;1199;36909;-81
2021/10/06 03:47:19;;;;;;;;;;;;;;;14.24;63.85;96645.01;115646;1198;24317;-82
2021/10/06 03:49:49;;;;;;;6.90;4.30;;;;;;;14.24;63.38;96646.34;115624;1199;25218;-81
2021/10/06 03:52:20;;;;;;;7.50;4.80;;;;;;;14.25;64.25;96649.80;115661;1199;24632;-81
2021/10/06 03:54:49;;;;;;;;;;;;;;;14.19;64.14;96649.90;115637;1199;23228;-81
2021/10/06 03:57:20;;;;;;;8.80;4.90;;;;;;;14.19;64.19;96653.58;115588;1199;25379;-81
2021/10/06 03:59:51;;;;;;;9.10;5.20;;;;;;;14.22;64.58;96656.02;115530;1199;33324;-82
2021/10/06 04:02:21;;;;;;;5.90;4.50;;;;;;;14.25;64.54;96653.40;115552;1198;31442;-81
2021/10/06 04:04:50;;;;;;;;;;;;;;;14.25;64.87;96659.42;115499;1199;35961;-81
2021/10/06 04:07:22;;;;;;;6.60;5.20;;;;;;;14.18;65.39;96658.88;115522;1192;28493;-81
2021/10/06 04:09:52;;;;;;;7.30;5.00;;;;;;;14.07;65.71;96663.17;115479;1198;28550;-81
2021/10/06 04:12:23;;;;;;;10.20;4.90;;;;;;;14.00;65.69;96665.95;115575;1199;29286;-82
2021/10/06 04:14:54;;;;;;;7.30;5.00;;;;;;;13.92;66.13;96666.73;115636;1199;27155;-81
2021/10/06 04:17:25;;;;;;;7.20;4.80;;;;;;;13.87;66.02;96673.87;115579;1199;28597;-82
2021/10/06 04:19:54;;;;;;;;;;;;;;;13.88;66.05;96670.59;115589;1199;26493;-81
2021/10/06 04:22:24;;;;;;;7.10;5.00;;;;;;;13.94;66.58;96673.10;115701;1199;25459;-81
2021/10/06 04:24:55;;;;;;;8.00;5.30;;;;;;;13.86;66.67;96677.52;115636;1198;27654;-82
2021/10/06 04:27:24;;;;;;;;;;;;;;;13.74;67.10;96677.80;115601;1199;28773;-82
2021/10/06 04:29:55;;;;;;;7.40;5.50;;;;;;;13.77;67.86;96678.48;115656;1199;28878;-82
2021/10/06 04:32:26;;;;;;;7.30;5.50;;;;;;;13.83;68.11;96678.60;115521;1199;57316;-81
2021/10/06 04:34:56;;;;;;;7.10;5.50;;;;;;;13.83;68.47;96682.02;115287;1200;27389;-81
2021/10/06 04:37:27;;;;;;;8.20;5.40;;;;;;;13.84;68.80;96690.20;115667;1193;34209;-81
2021/10/06 04:39:58;;;;;;;7.20;5.50;;;;;;;13.85;68.89;96689.84;115675;1199;26799;-82
2021/10/06 04:42:29;;;;;;;10.40;5.40;;;;;;;13.82;69.17;96693.91;115732;1199;31129;-81
2021/10/06 04:45:00;;;;;;;9.90;5.00;;;;;;;13.83;69.20;96688.73;115416;1199;29118;-79
2021/10/06 04:47:31;;;;;;;11.60;6.00;;;;;;;13.87;69.67;96694.34;115432;1192;33242;-81
2021/10/06 04:50:01;;;;;;;8.20;5.50;;;;;;;13.89;69.82;96694.52;115469;1192;27104;-80
2021/10/06 04:52:32;;;;;;;8.20;5.60;;;;;;;13.90;70.31;96695.19;115488;1199;53136;-80
2021/10/06 04:55:04;;;;;;;8.60;6.20;;;;;;;13.86;70.69;96699.94;115627;1199;32155;-81
2021/10/06 04:57:35;;;;;;;8.30;5.90;;;;;;;13.81;70.66;96700.91;115586;1199;25374;-82
2021/10/06 05:00:07;;;;;;;8.20;5.70;;;;;;;13.74;71.73;96703.40;115574;1199;27905;-82
2021/10/06 05:02:38;;;;;;;8.00;5.60;;;;;;;13.64;72.05;96703.58;115584;1199;31306;-81
2021/10/06 05:05:10;;;;;;;8.80;5.40;;;;;;;13.63;72.24;96705.71;115404;1199;28802;-81
2021/10/06 05:07:41;;;;;;;6.60;5.30;;;;;;;13.66;72.65;96706.20;115158;1200;31927;-81
2021/10/06 05:10:12;;;;;;;9.70;5.90;;;;;;;13.66;73.01;96709.66;115611;1199;25896;-81
2021/10/06 05:12:43;;;;;;;7.80;6.00;;;;;;;13.60;72.68;96715.77;115607;1194;29330;-81
2021/10/06 05:15:13;;;;;;;9.70;5.70;;;;;;;13.58;72.27;96717.33;115612;1199;26308;-82
2021/10/06 05:17:44;;;;;;;9.40;5.90;;;;;;;13.58;73.09;96718.17;115588;1199;32304;-81
2021/10/06 05:20:15;;;;;;;9.20;5.80;;;;;;;13.55;73.49;96711.58;115585;1198;55606;-81
2021/10/06 05:22:46;;;;;;;9.50;6.90;;;;;;;13.43;74.67;96707.56;115660;1199;26426;-81
2021/10/06 05:25:17;;;;;;;9.00;5.70;;;;;;;13.26;75.15;96717.41;115553;1198;30606;-81
2021/10/06 05:27:48;;;;;;;12.30;6.00;;;;;;;13.21;75.39;96715.98;115539;1199;68025;-82
2021/10/06 05:30:19;;;;;;;7.40;5.70;;;;;;;13.24;74.86;96722.77;115530;1197;38285;-81
2021/10/06 05:32:51;;;;;;;8.70;5.70;;;;;;;13.30;75.18;96731.08;115577;1186;28582;-82
2021/10/06 05:35:22;;;;;;;7.70;5.70;;;;;;;13.33;75.49;96728.77;115615;1199;27417;-81
2021/10/06 05:37:53;;;;;;;7.30;5.00;;;;;;;13.32;74.97;96731.14;115613;1198;28029;-82
2021/10/06 05:40:24;;;;;;;10.10;6.00;;;;;;;13.33;75.22;96733.63;115578;1199;34578;-81
2021/10/06 05:42:55;;;;;;;7.80;5.30;;;;;;;13.32;75.89;96736.27;115675;1199;30992;-83
2021/10/06 05:45:25;;;;;;;10.30;6.00;;;;;;;13.28;76.06;96741.92;115656;1199;29451;-82
2021/10/06 05:47:56;;;;;;;8.90;6.00;;;;;;;13.26;76.32;96741.27;115716;1192;26005;-81
2021/10/06 05:50:27;;;;;;;10.70;6.70;;;;;;;13.34;76.71;96743.15;115638;1193;30092;-82
2021/10/06 05:53:01;;;;;;;10.10;6.10;;;;;;;13.41;76.99;96739.94;115608;1184;39902;-83
2021/10/06 05:55:32;;;;;;;9.50;6.50;;;;;;;13.45;77.02;96745.15;115590;1193;24535;-80
2021/10/06 05:58:03;;;;;;;8.90;5.40;;;;;;;13.45;77.16;96748.55;115574;1193;28468;-81
2021/10/06 06:00:33;;;;;;;8.90;6.10;;;;;;;13.36;76.85;96757.17;115615;1199;24056;-81
2021/10/06 06:03:04;;;;;;;10.20;6.50;;;;;;;13.19;77.15;96761.77;115600;1184;32508;-82
2021/10/06 06:05:35;;;;;;;11.80;7.40;;;;;;;13.18;77.88;96770.77;115395;1199;32363;-81
2021/10/06 06:08:06;;;;;;;11.40;7.60;;;;;;;13.28;78.22;96773.93;115542;1199;28942;-81
2021/10/06 06:10:37;;;;;;;9.80;6.80;;;;;;;13.38;78.43;96783.04;115393;1199;44777;-81
2021/10/06 06:13:07;;;;;;;9.90;6.50;;;;;;;13.46;78.62;96783.11;115362;1199;33677;-81
2021/10/06 06:15:38;;;;;;;7.70;6.30;;;;;;;13.42;79.03;96784.13;115506;1199;29557;-81
2021/10/06 06:18:09;;;;;;;11.00;6.50;;;;;;;13.32;79.22;96784.92;115604;1199;29412;-82
2021/10/06 06:20:40;;;;;;;10.40;7.40;;;;;;;13.25;79.38;96784.73;115392;1199;27888;-82
2021/10/06 06:23:10;;;;;;;11.60;6.20;;;;;;;13.22;79.77;96787.54;115618;1198;26814;-82
2021/10/06 06:25:40;;;;;;;;;;;;;;;13.21;80.10;96791.76;115221;1200;31477;-80
2021/10/06 06:28:11;;;;;;;8.60;6.50;;;;;;;13.22;80.17;96801.59;115616;1199;30617;-82
2021/10/06 06:30:42;;;;;;;9.10;6.20;;;;;;;13.27;80.16;96804.67;115505;1199;28175;-81
2021/10/06 06:33:15;;;;;;;8.00;5.80;;;;;;;13.30;80.29;96809.89;115458;1199;30957;-82
2021/10/06 06:35:48;;;;;;;10.70;7.20;;;;;;;13.27;80.21;96815.27;115426;1193;34586;-82
2021/10/06 06:38:19;;;;;;;10.40;6.80;;;;;;;13.24;80.57;96805.63;115497;1199;29377;-81
2021/10/06 06:40:53;;;;;;;9.70;6.70;;;;;;;13.22;81.23;96813.74;115611;1192;28701;-82
2021/10/06 06:43:26;;;;;;;9.80;6.70;;;;;;;13.16;81.58;96818.02;115757;1199;25033;-81
2021/10/06 06:45:56;;;;;;;10.50;6.90;;;;;;;13.12;81.73;96820.73;115678;1198;26383;-81
2021/10/06 06:48:27;;;;;;;10.60;7.70;;;;;;;13.08;82.07;96820.34;115718;1199;52638;-82
2021/10/06 06:50:59;;;;;;;10.20;6.90;;;;;;;13.06;82.34;96821.38;115669;1192;25718;-82
2021/10/06 06:53:34;;;;;;;8.10;6.20;;;;;;;13.10;82.15;96825.98;115004;1199;1653066;-80
2021/10/06 06:56:10;;;;;;;8.10;6.30;;;;;;;13.21;81.90;96828.82;115504;1199;42561;-81
2021/10/06 06:58:41;;;;;;;10.20;6.80;;;;;;;13.28;81.50;96835.17;115250;1200;28480;-81
2021/10/06 07:01:11;;;;;;;8.90;6.40;;;;;;;13.27;81.37;96836.82;115539;1199;28830;-81
2021/10/06 07:03:42;;;;;;;10.80;6.60;;;;;;;13.35;81.64;96842.45;115404;1193;28713;-81
2021/10/06 07:06:13;;;;;;;8.80;6.60;;;;;;;13.46;81.67;96846.91;115482;1199;28985;-82
2021/10/06 07:08:47;;;;;;;9.60;6.80;;;;;;;13.55;81.57;96846.93;113226;1199;2566340;-81
2021/10/06 07:11:18;;;;;;;9.50;6.90;;;;;;;13.55;81.29;96850.46;115499;1199;27050;-81
2021/10/06 07:13:49;;;;;;;10.60;7.20;;;;;;;13.47;81.29;96843.54;113725;1198;2035263;-81
2021/10/06 07:16:20;;;;;;;10.20;7.00;;;;;;;13.45;82.15;96845.77;115448;1199;31551;-81
2021/10/06 07:18:51;;;;;;;10.20;6.90;;;;;;;13.43;82.54;96846.49;113742;1199;1864634;-81
2021/10/06 07:21:22;;;;;;;9.60;6.70;;;;;;;13.44;82.99;96844.39;113910;1199;2000235;-81
2021/10/06 07:23:55;;;;;;;10.10;6.70;;;;;;;13.43;83.29;96842.60;109985;1193;3580587;-81
2021/10/06 07:26:25;;;;;;;9.60;7.60;;;;;;;13.46;83.78;96846.81;114527;1199;1406909;-81
2021/10/06 07:28:55;;;;;;;;;;;;;;;13.46;84.02;96851.45;113955;1199;2039886;-81
2021/10/06 07:31:25;;;;;;;9.20;6.80;;;;;;;13.45;83.89;96850.62;113872;1199;2042905;-81
2021/10/06 07:33:57;;;;;;;11.40;6.70;;;;;;;13.49;83.78;96851.29;113061;1199;1749510;-81
2021/10/06 07:36:28;;;;;;;8.40;6.30;;;;;;;13.58;83.73;96852.95;114118;1191;2006608;-81
2021/10/06 07:39:04;;;;;;;10.30;7.20;;;;;;;13.69;83.59;96858.02;114196;1199;1757451;-79
2021/10/06 07:41:35;;;;;;;11.70;7.20;;;;;;;13.67;83.33;96868.44;114252;1198;1830982;-81
2021/10/06 07:44:06;;;;;;;9.20;7.00;;;;;;;13.55;83.20;96873.95;115581;1199;31804;-81
2021/10/06 07:46:37;;;;;;;9.70;7.00;;;;;;;13.50;83.35;96871.56;115650;1199;27643;-81
2021/10/06 07:49:14;;;;;;;11.50;7.50;;;;;;;13.51;83.51;96873.85;110752;1199;2062176;-81
2021/10/06 07:51:45;;;;;;;12.10;7.30;;;;;;;13.52;83.65;96875.44;115522;1199;27916;-81
2021/10/06 07:54:16;;;;;;;10.60;7.70;;;;;;;13.56;83.92;96877.13;111350;1192;5083606;-81
2021/10/06 07:56:46;;;;;;;10.70;8.20;;;;;;;13.65;84.12;96875.96;112597;1199;2021743;-81
2021/10/06 07:59:15;;;;;;;;;;;;;;;13.76;84.39;96871.05;111068;1199;2011781;-81
2021/10/06 08:01:46;;;;;;;10.30;6.70;;;;;;;13.81;84.33;96872.38;112350;1194;2095630;-81
2021/10/06 08:04:21;;;;;;;10.30;7.30;;;;;;;13.79;84.23;96870.14;112712;1193;3546593;-83
2021/10/06 08:06:52;;;;;;;11.60;7.20;;;;;;;13.79;84.16;96871.95;113873;1192;2005985;-81
2021/10/06 08:09:23;;;;;;;9.40;7.10;;;;;;;13.79;83.99;96871.48;110983;1192;5441453;-80
2021/10/06 08:11:54;;;;;;;10.90;7.10;;;;;;;13.77;83.89;96872.24;115177;1198;88427;-82
2021/10/06 08:14:25;;;;;;;9.20;6.70;;;;;;;13.76;83.64;96871.48;111822;1198;2585733;-81
2021/10/06 08:16:56;;;;;;;12.10;6.90;;;;;;;13.77;83.56;96868.85;112711;1199;1988441;-81
2021/10/06 08:19:29;;;;;;;9.80;6.60;;;;;;;13.83;83.73;96869.94;115526;1199;36259;-81
2021/10/06 08:22:02;;;;;;;9.20;6.90;;;;;;;13.90;83.46;96867.61;115687;1198;58446;-81
2021/10/06 08:24:33;;;;;;;10.10;6.50;;;;;;;13.99;83.49;96868.42;111128;1192;5407552;-80
2021/10/06 08:27:04;;;;;;;10.20;7.10;;;;;;;14.03;83.04;96873.58;113376;1199;2589390;-80
2021/10/06 08:29:34;;;;;;;9.70;6.30;;;;;;;14.01;83.04;96874.31;109969;1198;5040494;-80
2021/10/06 08:32:06;;;;;;;11.20;7.00;;;;;;;14.01;83.39;96873.09;113766;1199;2118425;-82
2021/10/06 08:34:37;;;;;;;8.10;6.10;;;;;;;13.95;82.87;96868.97;114560;1198;1288547;-81
2021/10/06 08:37:07;;;;;;;8.80;6.90;;;;;;;13.87;82.56;96873.31;115620;1193;39978;-81
2021/10/06 08:39:38;;;;;;;11.30;6.80;;;;;;;13.82;82.75;96877.05;115634;1199;32418;-81
2021/10/06 08:42:09;;;;;;;10.20;6.80;;;;;;;13.77;82.77;96878.85;115612;1198;32093;-81
2021/10/06 08:44:44;;;;;;;10.10;7.20;;;;;;;13.79;82.85;96881.72;115628;1192;27103;-81
2021/10/06 08:47:15;;;;;;;9.70;6.60;;;;;;;13.86;83.05;96883.41;115455;1199;28206;-82
2021/10/06 08:49:46;;;;;;;9.60;7.30;;;;;;;13.91;82.81;96882.25;115588;1198;26257;-81
2021/10/06 08:52:17;;;;;;;10.00;7.10;;;;;;;13.86;82.42;96879.40;115562;1192;28963;-81
2021/10/06 08:54:48;;;;;;;10.30;6.80;;;;;;;13.81;82.28;96882.28;114123;1198;1776846;-81
2021/10/06 08:57:20;;;;;;;9.70;7.30;;;;;;;13.79;82.20;96888.05;115375;1199;60546;-82
2021/10/06 08:59:51;;;;;;;10.30;7.10;;;;;;;13.69;81.58;96891.69;114060;1199;1985486;-81
2021/10/06 09:02:38;;;;;;;9.90;7.60;;;;;;;13.57;81.79;96890.86;113211;1199;1513441;-82
2021/10/06 09:05:14;;;;;;;11.10;7.90;;;;;;;13.57;82.38;96897.35;112328;1199;2153033;-82
2021/10/06 09:07:59;;;;;;;12.30;7.80;;;;;;;13.55;82.62;96896.11;113802;1199;2025672;-82
2021/10/06 09:10:34;;;;;;;11.20;7.40;;;;;;;13.58;83.05;96891.81;113062;1198;1830190;-82
2021/10/06 09:13:07;;;;;;;13.50;7.90;;;;;;;13.65;83.40;96892.38;115636;1199;41528;-81
2021/10/06 09:15:48;;;;;;;10.30;7.80;;;;;;;13.73;83.69;96888.52;115311;1200;28299;-84
2021/10/06 09:18:21;;;;;;;10.50;7.90;;;;;;;13.84;83.87;96883.61;113857;1199;2084587;-82
2021/10/06 09:20:54;;;;;;;10.80;7.70;;;;;;;13.89;84.02;96885.65;111139;1199;2016188;-82
2021/10/06 09:23:25;;;;;;;12.00;8.80;;;;;;;13.90;84.05;96894.91;115567;1199;27585;-82
2021/10/06 09:26:01;;;;;;;12.50;9.50;;;;;;;13.84;83.98;96898.06;115200;1200;65144;-82
2021/10/06 09:28:35;;;;;;;12.60;10.00;;;;;;;13.86;84.37;96902.86;114113;1199;2116462;-79
2021/10/06 09:31:09;;;;;;;13.60;9.10;;;;;;;13.94;84.52;96901.83;110617;1199;4696540;-81
2021/10/06 09:33:43;;;;;;;13.60;10.00;;;;;;;14.01;84.51;96902.50;112536;1200;1988266;-82
2021/10/06 09:36:17;;;;;;;14.20;11.30;;;;;;;14.09;84.62;96903.40;110986;1193;3610274;-82
2021/10/06 09:38:51;;;;;;;13.80;11.00;;;;;;;14.14;84.53;96912.95;112950;1199;3272629;-82
2021/10/06 09:41:35;;;;;;;18.80;10.80;;;;;;;14.06;83.97;96918.00;115530;1199;99862;-83
2021/10/06 09:44:16;;;;;;;13.80;10.00;;;;;;;13.96;84.25;96913.89;115593;1199;30496;-82
2021/10/06 09:46:59;;;;;;;13.90;9.40;;;;;;;14.03;84.49;96912.38;112666;1192;1943186;-83
2021/10/06 09:49:36;;;;;;;13.10;9.50;;;;;;;14.06;84.43;96913.23;115444;1192;34227;-82
2021/10/06 09:52:18;;;;;;;12.20;9.20;;;;;;;14.05;83.97;96909.42;115547;1192;54699;-81
2021/10/06 09:54:52;;;;;;;13.90;9.90;;;;;;;14.00;83.89;96909.79;115584;1199;51015;-81
2021/10/06 09:57:29;;;;;;;14.30;9.80;;;;;;;14.03;84.01;96915.27;115556;1199;45086;-81
2021/10/06 10:00:02;;;;;;;13.50;9.80;;;;;;;14.10;84.18;96909.67;115594;1199;86601;-83
2021/10/06 10:02:33;;;;;;;13.80;9.70;;;;;;;14.17;84.14;96909.43;115578;1198;28013;-81
2021/10/06 10:05:07;;;;;;;12.90;10.00;;;;;;;14.23;83.87;96909.13;115502;1199;27749;-81
2021/10/06 10:07:39;;;;;;;14.50;10.10;;;;;;;14.25;83.64;96920.98;115473;1199;31994;-82
2021/10/06 10:10:12;;;;;;;13.20;10.10;;;;;;;14.29;83.77;96912.01;115596;1199;27527;-82
2021/10/06 10:12:45;;;;;;;14.50;10.50;;;;;;;14.35;83.57;96910.45;115458;1198;36845;-82
2021/10/06 10:15:19;;;;;;;15.20;10.70;;;;;;;14.38;83.50;96908.71;115449;1192;30225;-82
2021/10/06 10:17:56;;;;;;;13.90;9.80;;;;;;;14.41;83.37;96906.87;115279;1200;29539;-82
2021/10/06 10:20:30;;;;;;;14.10;10.50;;;;;;;14.43;83.03;96911.33;115543;1198;32933;-82
2021/10/06 10:23:04;;;;;;;12.40;10.20;;;;;;;14.43;82.89;96908.64;115499;1193;32766;-81
2021/10/06 10:25:43;;;;;;;13.00;9.60;;;;;;;14.46;82.86;96913.31;115572;1198;48561;-80
2021/10/06 10:28:15;;;;;;;12.40;9.60;;;;;;;14.51;82.87;96920.49;115263;1200;33640;-81
2021/10/06 10:31:01;;;;;;;12.30;9.60;;;;;;;14.51;82.66;96921.50;115589;1199;31722;-82
2021/10/06 10:33:41;;;;;;;12.50;9.60;;;;;;;14.52;82.37;96920.41;115555;1198;27712;-81
2021/10/06 10:36:50;;;;;;;15.00;9.20;;;;;;;14.51;82.11;96911.56;115570;1198;27706;-82
2021/10/06 10:39:52;;;;;;;14.50;9.00;;;;;;;14.48;82.08;96910.17;115503;1199;29772;-82
2021/10/06 10:42:43;;;;;;;13.70;8.30;;;;;;;14.48;82.20;96914.55;115725;1199;30361;-82
2021/10/06 10:45:30;;;;;;;;;;;;;;;14.51;82.39;96911.69;115602;1199;29688;-82
2021/10/06 10:48:00;;;;;;;11.40;7.90;;;;;;;14.54;82.00;96906.77;115515;1198;36903;-81
2021/10/06 10:50:41;;;;;;;12.00;8.90;;;;;;;14.42;81.67;96910.80;115486;1199;29774;-81
2021/10/06 10:53:13;;;;;;;12.90;9.10;;;;;;;14.41;81.80;96905.92;115573;1199;32689;-82
2021/10/06 10:55:52;;;;;;;13.30;9.10;;;;;;;14.34;81.50;96905.67;115429;1199;33221;-82
2021/10/06 10:58:33;;;;;;;14.50;9.40;;;;;;;14.36;81.91;96903.94;115294;1200;35850;-82
2021/10/06 11:01:07;;;;;;;13.50;9.40;;;;;;;14.28;81.56;96902.09;115315;1199;37472;-81
2021/10/06 11:04:11;;;;;;;11.80;8.80;;;;;;;14.20;81.48;96902.77;115498;1191;28025;-81
2021/10/06 11:06:43;;;;;;;12.70;8.80;;;;;;;14.15;81.69;96904.17;115500;1199;36198;-81
2021/10/06 11:09:42;;;;;;;12.40;9.70;;;;;;;14.04;81.61;96905.98;115560;1199;34511;-81
2021/10/06 11:12:39;;;;;;;14.20;10.10;;;;;;;13.87;81.98;96903.70;115650;1199;27164;-82
2021/10/06 11:15:36;;;;;;;15.00;9.30;;;;;;;13.85;82.71;96908.27;115623;1198;36101;-82
2021/10/06 11:18:25;;;;;;;11.60;9.20;;;;;;;13.83;82.82;96906.48;115474;1199;29611;-81
2021/10/06 11:21:04;;;;;;;12.30;10.00;;;;;;;13.67;82.35;96912.17;114189;1198;1751629;-82
2021/10/06 11:23:56;;;;;;;15.20;10.30;;;;;;;13.55;82.67;96915.66;112856;1199;3400226;-80
2021/10/06 11:26:47;;;;;;;16.80;10.60;;;;;;;13.59;83.44;96913.89;115613;1193;30551;-81
2021/10/06 11:29:18;;;;;;;13.30;10.60;;;;;;;13.69;84.00;96909.16;113844;1192;2005626;-82
2021/10/06 11:31:49;;;;;;;43.30;23.70;;;;;;;13.86;84.59;96903.98;114582;1199;1284481;-81
2021/10/06 11:34:21;;;;;;;18.20;14.50;;;;;;;14.06;84.92;96900.29;115490;1199;36961;-81
2021/10/06 11:36:54;;;;;;;16.70;11.50;;;;;;;14.21;84.79;96899.92;114103;1199;1623623;-81
2021/10/06 11:39:28;;;;;;;15.50;11.20;;;;;;;14.32;84.80;96898.45;113771;1199;2030867;-82
2021/10/06 11:41:59;;;;;;;17.50;11.10;;;;;;;14.40;84.75;96901.08;114113;1199;1846390;-81
2021/10/06 11:44:36;;;;;;;14.30;10.40;;;;;;;14.47;84.50;96896.38;111250;1199;5102006;-82
2021/10/06 11:47:12;;;;;;;14.10;10.70;;;;;;;14.43;84.32;96897.23;113784;1199;2070479;-82